sensor_id;sensor_type;location;lat;lon;timestamp;P1;durP1;ratioP1;P2;durP2;ratioP2
51985;SDS011;38002;53.296;6.600;2022-12-18T00:04:48;48.53;;;18.67;;
51985;SDS011;38002;53.296;6.600;2022-12-18T00:09:49;72.50;;;24.73;;
51985;SDS011;38002;53.296;6.600;2022-12-18T00:14:49;58.22;;;20.15;;
51985;SDS011;38002;53.296;6.600;2022-12-18T00:19:49;53.57;;;19.30;;
51985;SDS011;38002;53.296;6.600;2022-12-18T00:24:50;26.97;;;10.00;;
51985;SDS011;38002;53.296;6.600;2022-12-18T00:29:50;43.77;;;17.30;;
51985;SDS011;38002;53.296;6.600;2022-12-18T00:34:51;54.83;;;19.87;;
51985;SDS011;38002;53.296;6.600;2022-12-18T00:39:51;54.70;;;20.60;;
51985;SDS011;38002;53.296;6.600;2022-12-18T00:44:51;50.40;;;21.13;;
51985;SDS011;38002;53.296;6.600;2022-12-18T00:49:52;61.37;;;21.30;;
51985;SDS011;38002;53.296;6.600;2022-12-18T00:54:52;54.30;;;20.57;;
51985;SDS011;38002;53.296;6.600;2022-12-18T00:59:53;64.67;;;19.50;;
51985;SDS011;38002;53.296;6.600;2022-12-18T01:04:53;45.47;;;16.53;;
51985;SDS011;38002;53.296;6.600;2022-12-18T01:09:53;55.17;;;19.50;;
51985;SDS011;38002;53.296;6.600;2022-12-18T01:14:54;78.07;;;21.10;;
51985;SDS011;38002;53.296;6.600;2022-12-18T01:19:54;57.73;;;20.93;;
51985;SDS011;38002;53.296;6.600;2022-12-18T01:24:55;53.93;;;19.27;;
51985;SDS011;38002;53.296;6.600;2022-12-18T01:29:55;55.63;;;20.20;;
51985;SDS011;38002;53.296;6.600;2022-12-18T01:34:55;58.70;;;21.60;;
51985;SDS011;38002;53.296;6.600;2022-12-18T01:39:56;55.17;;;19.20;;
51985;SDS011;38002;53.296;6.600;2022-12-18T01:55:15;40.63;;;17.05;;
51985;SDS011;38002;53.296;6.600;2022-12-18T02:00:19;44.17;;;17.33;;
51985;SDS011;38002;53.296;6.600;2022-12-18T02:10:56;48.75;;;18.30;;
51985;SDS011;38002;53.296;6.600;2022-12-18T02:16:00;52.30;;;20.50;;
51985;SDS011;38002;53.296;6.600;2022-12-18T02:26:41;53.17;;;18.50;;
51985;SDS011;38002;53.296;6.600;2022-12-18T02:31:49;52.90;;;17.30;;
51985;SDS011;38002;53.296;6.600;2022-12-18T02:36:52;54.90;;;18.20;;
51985;SDS011;38002;53.296;6.600;2022-12-18T02:46:55;47.60;;;18.67;;
51985;SDS011;38002;53.296;6.600;2022-12-18T02:52:07;46.57;;;17.17;;
51985;SDS011;38002;53.296;6.600;2022-12-18T02:57:24;61.57;;;20.90;;
51985;SDS011;38002;53.296;6.600;2022-12-18T03:02:39;52.87;;;19.80;;
51985;SDS011;38002;53.296;6.600;2022-12-18T03:13:02;53.50;;;18.40;;
51985;SDS011;38002;53.296;6.600;2022-12-18T03:18:19;56.10;;;17.50;;
51985;SDS011;38002;53.296;6.600;2022-12-18T03:23:25;47.77;;;19.53;;
51985;SDS011;38002;53.296;6.600;2022-12-18T03:28:29;52.43;;;17.13;;
51985;SDS011;38002;53.296;6.600;2022-12-18T03:38:50;53.80;;;18.37;;
51985;SDS011;38002;53.296;6.600;2022-12-18T03:54:59;54.63;;;19.90;;
51985;SDS011;38002;53.296;6.600;2022-12-18T04:00:06;57.10;;;19.87;;
51985;SDS011;38002;53.296;6.600;2022-12-18T04:05:10;31.70;;;15.37;;
51985;SDS011;38002;53.296;6.600;2022-12-18T04:15:13;59.93;;;19.77;;
51985;SDS011;38002;53.296;6.600;2022-12-18T04:20:13;60.43;;;19.57;;
51985;SDS011;38002;53.296;6.600;2022-12-18T04:25:14;67.33;;;20.90;;
51985;SDS011;38002;53.296;6.600;2022-12-18T04:30:14;49.87;;;20.83;;
51985;SDS011;38002;53.296;6.600;2022-12-18T04:35:15;53.00;;;20.07;;
51985;SDS011;38002;53.296;6.600;2022-12-18T04:40:15;63.20;;;21.00;;
51985;SDS011;38002;53.296;6.600;2022-12-18T04:45:16;42.63;;;18.07;;
51985;SDS011;38002;53.296;6.600;2022-12-18T04:50:16;54.57;;;19.70;;
51985;SDS011;38002;53.296;6.600;2022-12-18T04:55:17;56.17;;;20.53;;
51985;SDS011;38002;53.296;6.600;2022-12-18T05:00:17;54.07;;;19.00;;
51985;SDS011;38002;53.296;6.600;2022-12-18T05:05:18;57.90;;;19.73;;
51985;SDS011;38002;53.296;6.600;2022-12-18T05:10:18;56.50;;;22.33;;
51985;SDS011;38002;53.296;6.600;2022-12-18T05:15:18;55.30;;;18.93;;
51985;SDS011;38002;53.296;6.600;2022-12-18T05:20:19;51.57;;;18.73;;
51985;SDS011;38002;53.296;6.600;2022-12-18T05:25:20;57.83;;;17.90;;
51985;SDS011;38002;53.296;6.600;2022-12-18T05:30:20;55.73;;;19.93;;
51985;SDS011;38002;53.296;6.600;2022-12-18T05:35:22;51.45;;;17.63;;
51985;SDS011;38002;53.296;6.600;2022-12-18T05:40:22;44.10;;;19.63;;
51985;SDS011;38002;53.296;6.600;2022-12-18T05:45:23;41.17;;;18.30;;
51985;SDS011;38002;53.296;6.600;2022-12-18T05:50:23;59.87;;;18.77;;
51985;SDS011;38002;53.296;6.600;2022-12-18T05:55:24;44.37;;;17.13;;
51985;SDS011;38002;53.296;6.600;2022-12-18T06:00:24;45.27;;;17.57;;
51985;SDS011;38002;53.296;6.600;2022-12-18T06:05:25;45.23;;;17.80;;
51985;SDS011;38002;53.296;6.600;2022-12-18T06:10:25;41.40;;;16.93;;
51985;SDS011;38002;53.296;6.600;2022-12-18T06:15:26;52.00;;;16.83;;
51985;SDS011;38002;53.296;6.600;2022-12-18T06:20:26;57.70;;;20.43;;
51985;SDS011;38002;53.296;6.600;2022-12-18T06:25:27;64.43;;;20.20;;
51985;SDS011;38002;53.296;6.600;2022-12-18T06:30:27;38.17;;;16.17;;
51985;SDS011;38002;53.296;6.600;2022-12-18T06:35:27;41.27;;;16.57;;
51985;SDS011;38002;53.296;6.600;2022-12-18T06:40:28;40.70;;;17.23;;
51985;SDS011;38002;53.296;6.600;2022-12-18T06:45:29;46.27;;;15.53;;
51985;SDS011;38002;53.296;6.600;2022-12-18T06:50:29;35.97;;;15.33;;
51985;SDS011;38002;53.296;6.600;2022-12-18T06:55:30;39.97;;;15.40;;
51985;SDS011;38002;53.296;6.600;2022-12-18T07:00:30;40.93;;;14.83;;
51985;SDS011;38002;53.296;6.600;2022-12-18T07:05:30;36.47;;;14.63;;
51985;SDS011;38002;53.296;6.600;2022-12-18T07:10:31;34.17;;;15.47;;
51985;SDS011;38002;53.296;6.600;2022-12-18T07:15:31;32.87;;;14.30;;
51985;SDS011;38002;53.296;6.600;2022-12-18T07:20:32;36.73;;;13.70;;
51985;SDS011;38002;53.296;6.600;2022-12-18T07:25:34;31.13;;;15.87;;
51985;SDS011;38002;53.296;6.600;2022-12-18T07:30:36;39.10;;;13.45;;
51985;SDS011;38002;53.296;6.600;2022-12-18T07:35:37;33.43;;;14.43;;
51985;SDS011;38002;53.296;6.600;2022-12-18T07:40:38;30.63;;;13.33;;
51985;SDS011;38002;53.296;6.600;2022-12-18T07:45:38;35.17;;;12.47;;
51985;SDS011;38002;53.296;6.600;2022-12-18T07:50:39;27.47;;;12.27;;
51985;SDS011;38002;53.296;6.600;2022-12-18T07:55:40;31.93;;;13.27;;
51985;SDS011;38002;53.296;6.600;2022-12-18T08:00:43;32.10;;;13.40;;
51985;SDS011;38002;53.296;6.600;2022-12-18T08:05:43;31.67;;;12.60;;
51985;SDS011;38002;53.296;6.600;2022-12-18T08:10:44;28.47;;;13.17;;
51985;SDS011;38002;53.296;6.600;2022-12-18T08:15:44;27.60;;;13.00;;
51985;SDS011;38002;53.296;6.600;2022-12-18T08:20:45;30.53;;;13.73;;
51985;SDS011;38002;53.296;6.600;2022-12-18T08:25:45;26.07;;;12.87;;
51985;SDS011;38002;53.296;6.600;2022-12-18T08:30:46;35.10;;;15.57;;
51985;SDS011;38002;53.296;6.600;2022-12-18T08:35:46;26.87;;;14.30;;
51985;SDS011;38002;53.296;6.600;2022-12-18T08:40:46;34.07;;;14.93;;
51985;SDS011;38002;53.296;6.600;2022-12-18T08:45:47;24.73;;;12.97;;
51985;SDS011;38002;53.296;6.600;2022-12-18T08:50:57;32.40;;;14.50;;
51985;SDS011;38002;53.296;6.600;2022-12-18T08:55:58;25.13;;;13.63;;
51985;SDS011;38002;53.296;6.600;2022-12-18T09:00:59;28.83;;;13.67;;
51985;SDS011;38002;53.296;6.600;2022-12-18T09:06:04;31.03;;;14.40;;
51985;SDS011;38002;53.296;6.600;2022-12-18T09:11:09;26.70;;;13.68;;
51985;SDS011;38002;53.296;6.600;2022-12-18T09:16:12;20.90;;;12.03;;
51985;SDS011;38002;53.296;6.600;2022-12-18T09:21:14;25.90;;;13.77;;
51985;SDS011;38002;53.296;6.600;2022-12-18T09:26:16;24.20;;;12.93;;
51985;SDS011;38002;53.296;6.600;2022-12-18T09:31:18;29.93;;;14.57;;
51985;SDS011;38002;53.296;6.600;2022-12-18T09:36:19;26.57;;;12.77;;
51985;SDS011;38002;53.296;6.600;2022-12-18T09:42:02;26.87;;;13.07;;
51985;SDS011;38002;53.296;6.600;2022-12-18T09:46:47;30.20;;;14.13;;
51985;SDS011;38002;53.296;6.600;2022-12-18T09:52:00;18.97;;;11.57;;
51985;SDS011;38002;53.296;6.600;2022-12-18T09:57:20;24.27;;;11.67;;
51985;SDS011;38002;53.296;6.600;2022-12-18T10:02:23;20.33;;;11.10;;
51985;SDS011;38002;53.296;6.600;2022-12-18T10:12:32;21.70;;;10.97;;
51985;SDS011;38002;53.296;6.600;2022-12-18T10:28:13;14.80;;;9.03;;
51985;SDS011;38002;53.296;6.600;2022-12-18T10:33:16;18.00;;;9.90;;
51985;SDS011;38002;53.296;6.600;2022-12-18T10:43:20;13.17;;;8.63;;
51985;SDS011;38002;53.296;6.600;2022-12-18T10:49:00;14.67;;;8.80;;
51985;SDS011;38002;53.296;6.600;2022-12-18T10:54:03;19.27;;;7.80;;
51985;SDS011;38002;53.296;6.600;2022-12-18T10:59:07;16.43;;;9.40;;
51985;SDS011;38002;53.296;6.600;2022-12-18T11:04:13;13.93;;;7.87;;
51985;SDS011;38002;53.296;6.600;2022-12-18T11:09:39;16.13;;;8.27;;
51985;SDS011;38002;53.296;6.600;2022-12-18T11:14:53;16.67;;;8.13;;
51985;SDS011;38002;53.296;6.600;2022-12-18T11:20:07;15.93;;;9.73;;
51985;SDS011;38002;53.296;6.600;2022-12-18T11:25:26;16.07;;;8.47;;
51985;SDS011;38002;53.296;6.600;2022-12-18T11:30:34;16.37;;;9.30;;
51985;SDS011;38002;53.296;6.600;2022-12-18T11:35:40;16.37;;;10.13;;
51985;SDS011;38002;53.296;6.600;2022-12-18T11:40:54;19.33;;;9.25;;
51985;SDS011;38002;53.296;6.600;2022-12-18T11:46:01;15.97;;;8.70;;
51985;SDS011;38002;53.296;6.600;2022-12-18T11:51:09;16.35;;;8.05;;
51985;SDS011;38002;53.296;6.600;2022-12-18T12:01:46;12.73;;;8.07;;
51985;SDS011;38002;53.296;6.600;2022-12-18T12:12:15;15.27;;;8.20;;
51985;SDS011;38002;53.296;6.600;2022-12-18T12:17:45;10.38;;;5.60;;
51985;SDS011;38002;53.296;6.600;2022-12-18T12:39:07;13.45;;;6.15;;
51985;SDS011;38002;53.296;6.600;2022-12-18T12:44:14;6.63;;;5.03;;
51985;SDS011;38002;53.296;6.600;2022-12-18T12:49:20;11.93;;;5.80;;
51985;SDS011;38002;53.296;6.600;2022-12-18T12:54:23;8.60;;;5.45;;
51985;SDS011;38002;53.296;6.600;2022-12-18T13:25:44;7.88;;;4.80;;
51985;SDS011;38002;53.296;6.600;2022-12-18T13:30:45;8.38;;;5.03;;
51985;SDS011;38002;53.296;6.600;2022-12-18T13:51:22;10.35;;;5.18;;
51985;SDS011;38002;53.296;6.600;2022-12-18T13:56:25;7.93;;;5.00;;
51985;SDS011;38002;53.296;6.600;2022-12-18T14:01:27;7.97;;;5.10;;
51985;SDS011;38002;53.296;6.600;2022-12-18T14:06:28;6.93;;;5.03;;
51985;SDS011;38002;53.296;6.600;2022-12-18T14:11:28;6.43;;;4.47;;
51985;SDS011;38002;53.296;6.600;2022-12-18T14:16:29;9.63;;;4.77;;
51985;SDS011;38002;53.296;6.600;2022-12-18T14:21:30;9.50;;;4.67;;
51985;SDS011;38002;53.296;6.600;2022-12-18T14:26:34;7.97;;;5.43;;
51985;SDS011;38002;53.296;6.600;2022-12-18T14:31:34;7.05;;;5.18;;
51985;SDS011;38002;53.296;6.600;2022-12-18T14:36:35;13.43;;;5.65;;
51985;SDS011;38002;53.296;6.600;2022-12-18T14:41:35;9.70;;;5.47;;
51985;SDS011;38002;53.296;6.600;2022-12-18T14:46:37;12.07;;;7.18;;
51985;SDS011;38002;53.296;6.600;2022-12-18T14:56:43;8.25;;;5.30;;
51985;SDS011;38002;53.296;6.600;2022-12-18T15:01:46;9.77;;;6.32;;
51985;SDS011;38002;53.296;6.600;2022-12-18T15:07:13;10.50;;;6.85;;
51985;SDS011;38002;53.296;6.600;2022-12-18T15:12:24;12.00;;;6.60;;
51985;SDS011;38002;53.296;6.600;2022-12-18T15:17:32;10.52;;;6.97;;
51985;SDS011;38002;53.296;6.600;2022-12-18T15:22:34;11.88;;;6.63;;
51985;SDS011;38002;53.296;6.600;2022-12-18T15:27:36;15.63;;;8.38;;
51985;SDS011;38002;53.296;6.600;2022-12-18T15:32:38;13.07;;;6.72;;
51985;SDS011;38002;53.296;6.600;2022-12-18T15:37:39;11.63;;;6.93;;
51985;SDS011;38002;53.296;6.600;2022-12-18T15:42:43;17.27;;;8.25;;
51985;SDS011;38002;53.296;6.600;2022-12-18T15:48:20;12.13;;;7.55;;
51985;SDS011;38002;53.296;6.600;2022-12-18T15:53:23;14.85;;;7.65;;
51985;SDS011;38002;53.296;6.600;2022-12-18T15:58:25;15.50;;;7.35;;
51985;SDS011;38002;53.296;6.600;2022-12-18T16:03:26;14.45;;;8.57;;
51985;SDS011;38002;53.296;6.600;2022-12-18T16:08:26;10.97;;;6.67;;
51985;SDS011;38002;53.296;6.600;2022-12-18T16:13:27;11.68;;;7.85;;
51985;SDS011;38002;53.296;6.600;2022-12-18T16:18:27;15.95;;;8.50;;
51985;SDS011;38002;53.296;6.600;2022-12-18T16:23:27;14.23;;;8.10;;
51985;SDS011;38002;53.296;6.600;2022-12-18T16:28:28;14.13;;;8.27;;
51985;SDS011;38002;53.296;6.600;2022-12-18T16:33:28;15.40;;;7.75;;
51985;SDS011;38002;53.296;6.600;2022-12-18T16:38:29;13.23;;;7.93;;
51985;SDS011;38002;53.296;6.600;2022-12-18T16:43:29;11.13;;;7.50;;
51985;SDS011;38002;53.296;6.600;2022-12-18T16:48:30;19.23;;;8.35;;
51985;SDS011;38002;53.296;6.600;2022-12-18T16:53:31;15.85;;;7.15;;
51985;SDS011;38002;53.296;6.600;2022-12-18T16:58:33;9.50;;;6.07;;
51985;SDS011;38002;53.296;6.600;2022-12-18T17:03:33;12.40;;;7.93;;
51985;SDS011;38002;53.296;6.600;2022-12-18T17:08:34;13.18;;;6.80;;
51985;SDS011;38002;53.296;6.600;2022-12-18T17:13:34;13.63;;;7.68;;
51985;SDS011;38002;53.296;6.600;2022-12-18T17:18:35;13.57;;;7.50;;
51985;SDS011;38002;53.296;6.600;2022-12-18T17:23:36;11.88;;;7.22;;
51985;SDS011;38002;53.296;6.600;2022-12-18T17:28:37;15.05;;;7.85;;
51985;SDS011;38002;53.296;6.600;2022-12-18T17:33:40;13.93;;;7.72;;
51985;SDS011;38002;53.296;6.600;2022-12-18T17:38:40;16.95;;;7.05;;
51985;SDS011;38002;53.296;6.600;2022-12-18T17:43:41;8.30;;;6.18;;
51985;SDS011;38002;53.296;6.600;2022-12-18T17:48:45;8.30;;;5.38;;
51985;SDS011;38002;53.296;6.600;2022-12-18T17:53:45;16.13;;;6.65;;
51985;SDS011;38002;53.296;6.600;2022-12-18T17:58:46;9.45;;;5.65;;
51985;SDS011;38002;53.296;6.600;2022-12-18T18:03:47;10.60;;;6.23;;
51985;SDS011;38002;53.296;6.600;2022-12-18T18:08:48;6.15;;;4.25;;
51985;SDS011;38002;53.296;6.600;2022-12-18T18:13:48;11.45;;;6.45;;
51985;SDS011;38002;53.296;6.600;2022-12-18T18:19:02;11.52;;;5.47;;
51985;SDS011;38002;53.296;6.600;2022-12-18T18:24:04;8.18;;;5.35;;
51985;SDS011;38002;53.296;6.600;2022-12-18T18:29:06;8.60;;;5.45;;
51985;SDS011;38002;53.296;6.600;2022-12-18T18:34:10;7.82;;;5.90;;
51985;SDS011;38002;53.296;6.600;2022-12-18T18:39:14;14.02;;;6.88;;
51985;SDS011;38002;53.296;6.600;2022-12-18T18:44:15;9.15;;;5.95;;
51985;SDS011;38002;53.296;6.600;2022-12-18T18:49:16;10.30;;;5.53;;
51985;SDS011;38002;53.296;6.600;2022-12-18T18:54:17;9.48;;;5.25;;
51985;SDS011;38002;53.296;6.600;2022-12-18T18:59:17;9.63;;;5.85;;
51985;SDS011;38002;53.296;6.600;2022-12-18T19:04:18;7.25;;;4.85;;
51985;SDS011;38002;53.296;6.600;2022-12-18T19:09:18;12.30;;;6.22;;
51985;SDS011;38002;53.296;6.600;2022-12-18T19:14:19;8.80;;;6.05;;
51985;SDS011;38002;53.296;6.600;2022-12-18T19:19:19;10.68;;;5.32;;
51985;SDS011;38002;53.296;6.600;2022-12-18T19:24:21;11.00;;;6.13;;
51985;SDS011;38002;53.296;6.600;2022-12-18T19:29:21;9.23;;;6.15;;
51985;SDS011;38002;53.296;6.600;2022-12-18T19:34:22;9.07;;;5.78;;
51985;SDS011;38002;53.296;6.600;2022-12-18T19:39:22;15.32;;;8.52;;
51985;SDS011;38002;53.296;6.600;2022-12-18T19:44:25;11.90;;;7.18;;
51985;SDS011;38002;53.296;6.600;2022-12-18T19:49:25;8.57;;;6.53;;
51985;SDS011;38002;53.296;6.600;2022-12-18T19:54:26;11.48;;;6.95;;
51985;SDS011;38002;53.296;6.600;2022-12-18T19:59:27;10.32;;;6.40;;
51985;SDS011;38002;53.296;6.600;2022-12-18T20:04:27;5.90;;;3.80;;
51985;SDS011;38002;53.296;6.600;2022-12-18T20:09:31;10.38;;;6.60;;
51985;SDS011;38002;53.296;6.600;2022-12-18T20:14:31;11.85;;;6.65;;
51985;SDS011;38002;53.296;6.600;2022-12-18T20:19:31;10.65;;;6.43;;
51985;SDS011;38002;53.296;6.600;2022-12-18T20:24:32;12.45;;;7.43;;
51985;SDS011;38002;53.296;6.600;2022-12-18T20:29:32;12.65;;;8.05;;
51985;SDS011;38002;53.296;6.600;2022-12-18T20:34:33;13.70;;;7.60;;
51985;SDS011;38002;53.296;6.600;2022-12-18T20:39:33;15.95;;;8.43;;
51985;SDS011;38002;53.296;6.600;2022-12-18T20:44:34;12.70;;;6.93;;
51985;SDS011;38002;53.296;6.600;2022-12-18T20:49:34;15.52;;;8.32;;
51985;SDS011;38002;53.296;6.600;2022-12-18T20:54:35;16.42;;;8.15;;
51985;SDS011;38002;53.296;6.600;2022-12-18T20:59:35;14.80;;;8.50;;
51985;SDS011;38002;53.296;6.600;2022-12-18T21:04:36;16.95;;;8.38;;
51985;SDS011;38002;53.296;6.600;2022-12-18T21:09:36;10.30;;;7.13;;
51985;SDS011;38002;53.296;6.600;2022-12-18T21:14:37;19.83;;;10.65;;
51985;SDS011;38002;53.296;6.600;2022-12-18T21:19:37;16.23;;;9.30;;
51985;SDS011;38002;53.296;6.600;2022-12-18T21:24:38;22.38;;;10.80;;
51985;SDS011;38002;53.296;6.600;2022-12-18T21:29:38;22.58;;;11.05;;
51985;SDS011;38002;53.296;6.600;2022-12-18T21:34:39;15.67;;;9.97;;
51985;SDS011;38002;53.296;6.600;2022-12-18T21:39:40;19.30;;;10.10;;
51985;SDS011;38002;53.296;6.600;2022-12-18T21:44:40;16.52;;;10.02;;
51985;SDS011;38002;53.296;6.600;2022-12-18T21:49:41;15.77;;;9.65;;
51985;SDS011;38002;53.296;6.600;2022-12-18T21:54:41;18.42;;;10.05;;
51985;SDS011;38002;53.296;6.600;2022-12-18T21:59:42;20.13;;;10.00;;
51985;SDS011;38002;53.296;6.600;2022-12-18T22:04:43;12.25;;;7.63;;
51985;SDS011;38002;53.296;6.600;2022-12-18T22:09:45;21.15;;;11.48;;
51985;SDS011;38002;53.296;6.600;2022-12-18T22:14:46;18.67;;;11.77;;
51985;SDS011;38002;53.296;6.600;2022-12-18T22:19:46;20.15;;;10.35;;
51985;SDS011;38002;53.296;6.600;2022-12-18T22:24:47;20.77;;;11.52;;
51985;SDS011;38002;53.296;6.600;2022-12-18T22:29:47;18.60;;;10.15;;
51985;SDS011;38002;53.296;6.600;2022-12-18T22:35:03;21.80;;;13.05;;
51985;SDS011;38002;53.296;6.600;2022-12-18T22:40:05;24.27;;;13.05;;
51985;SDS011;38002;53.296;6.600;2022-12-18T22:45:06;24.45;;;13.95;;
51985;SDS011;38002;53.296;6.600;2022-12-18T22:50:07;25.25;;;13.25;;
51985;SDS011;38002;53.296;6.600;2022-12-18T23:00:09;27.85;;;13.32;;
51985;SDS011;38002;53.296;6.600;2022-12-18T23:05:10;25.10;;;13.13;;
51985;SDS011;38002;53.296;6.600;2022-12-18T23:10:10;21.00;;;13.77;;
51985;SDS011;38002;53.296;6.600;2022-12-18T23:15:11;29.25;;;15.23;;
51985;SDS011;38002;53.296;6.600;2022-12-18T23:20:11;27.73;;;14.00;;
51985;SDS011;38002;53.296;6.600;2022-12-18T23:25:12;22.17;;;12.83;;
51985;SDS011;38002;53.296;6.600;2022-12-18T23:30:13;30.15;;;14.57;;
51985;SDS011;38002;53.296;6.600;2022-12-18T23:35:14;33.67;;;16.23;;
51985;SDS011;38002;53.296;6.600;2022-12-18T23:40:14;25.88;;;13.50;;
51985;SDS011;38002;53.296;6.600;2022-12-18T23:45:15;25.80;;;14.73;;
51985;SDS011;38002;53.296;6.600;2022-12-18T23:50:15;25.83;;;14.75;;
51985;SDS011;38002;53.296;6.600;2022-12-18T23:55:16;32.30;;;16.58;;
